<?xml version="1.0" encoding="UTF-8" standalone="no" ?>
<gpx xmlns="http://www.topografix.com/GPX/1/1" xmlns:xsi="http://www.w3.org/2001/XMLSchema-instance" xsi:schemaLocation="http://www.topografix.com/GPX/1/1 http://www.topografix.com/GPX/1/1/gpx.xsd" version="1.1" creator="VisuGPX - https://www.visugpx.com">
  <metadata>
    <name>La Verrie-La Gaubretière Ponneau</name>
  </metadata>
  <trk>
    <name><![CDATA[14198505-Rond point la Verrie la Gaub-Ponneau]]></name>
    <trkseg>
      <trkpt lat="46.95145" lon="-1.00853">
        <ele>197</ele>
        <time>2022-03-21T09:58:38Z</time>
      </trkpt>
      <trkpt lat="46.95154" lon="-1.00867">
        <ele>197</ele>
        <time>2022-03-21T09:58:49Z</time>
      </trkpt>
      <trkpt lat="46.95145" lon="-1.00889">
        <ele>197</ele>
        <time>2022-03-21T09:59:03Z</time>
      </trkpt>
      <trkpt lat="46.95142" lon="-1.00916">
        <ele>196</ele>
        <time>2022-03-21T09:59:17Z</time>
      </trkpt>
      <trkpt lat="46.95144" lon="-1.00935">
        <ele>196</ele>
        <time>2022-03-21T09:59:28Z</time>
      </trkpt>
      <trkpt lat="46.95155" lon="-1.00976">
        <ele>197</ele>
        <time>2022-03-21T09:59:52Z</time>
      </trkpt>
      <trkpt lat="46.95157" lon="-1.00992">
        <ele>197</ele>
        <time>2022-03-21T10:00:01Z</time>
      </trkpt>
      <trkpt lat="46.95157" lon="-1.01018">
        <ele>197</ele>
        <time>2022-03-21T10:00:15Z</time>
      </trkpt>
      <trkpt lat="46.95153" lon="-1.01038">
        <ele>198</ele>
        <time>2022-03-21T10:00:27Z</time>
      </trkpt>
      <trkpt lat="46.95147" lon="-1.01058">
        <ele>198</ele>
        <time>2022-03-21T10:00:38Z</time>
      </trkpt>
      <trkpt lat="46.95131" lon="-1.01085">
        <ele>198</ele>
        <time>2022-03-21T10:00:58Z</time>
      </trkpt>
      <trkpt lat="46.95052" lon="-1.0125">
        <ele>194</ele>
        <time>2022-03-21T10:02:48Z</time>
      </trkpt>
      <trkpt lat="46.95041" lon="-1.01264">
        <ele>192</ele>
        <time>2022-03-21T10:03:00Z</time>
      </trkpt>
      <trkpt lat="46.95032" lon="-1.0127">
        <ele>191</ele>
        <time>2022-03-21T10:03:08Z</time>
      </trkpt>
      <trkpt lat="46.95027" lon="-1.01284">
        <ele>191</ele>
        <time>2022-03-21T10:03:16Z</time>
      </trkpt>
      <trkpt lat="46.94939" lon="-1.01387">
        <ele>182</ele>
        <time>2022-03-21T10:04:47Z</time>
      </trkpt>
      <trkpt lat="46.94896" lon="-1.01429">
        <ele>180</ele>
        <time>2022-03-21T10:05:28Z</time>
      </trkpt>
      <trkpt lat="46.9488" lon="-1.0146">
        <ele>180</ele>
        <time>2022-03-21T10:05:49Z</time>
      </trkpt>
      <trkpt lat="46.94861" lon="-1.01488">
        <ele>180</ele>
        <time>2022-03-21T10:06:11Z</time>
      </trkpt>
      <trkpt lat="46.94821" lon="-1.01521">
        <ele>180</ele>
        <time>2022-03-21T10:06:48Z</time>
      </trkpt>
      <trkpt lat="46.94767" lon="-1.01578">
        <ele>176</ele>
        <time>2022-03-21T10:07:41Z</time>
      </trkpt>
      <trkpt lat="46.94743" lon="-1.01617">
        <ele>174</ele>
        <time>2022-03-21T10:08:10Z</time>
      </trkpt>
      <trkpt lat="46.94705" lon="-1.01659">
        <ele>170</ele>
        <time>2022-03-21T10:08:48Z</time>
      </trkpt>
      <trkpt lat="46.9466" lon="-1.01692">
        <ele>167</ele>
        <time>2022-03-21T10:09:28Z</time>
      </trkpt>
      <trkpt lat="46.94622" lon="-1.01725">
        <ele>164</ele>
        <time>2022-03-21T10:10:03Z</time>
      </trkpt>
      <trkpt lat="46.94595" lon="-1.01755">
        <ele>162</ele>
        <time>2022-03-21T10:10:30Z</time>
      </trkpt>
      <trkpt lat="46.94594" lon="-1.01773">
        <ele>162</ele>
        <time>2022-03-21T10:10:40Z</time>
      </trkpt>
      <trkpt lat="46.94602" lon="-1.01904">
        <ele>161</ele>
        <time>2022-03-21T10:11:52Z</time>
      </trkpt>
      <trkpt lat="46.9461" lon="-1.01957">
        <ele>160</ele>
        <time>2022-03-21T10:12:22Z</time>
      </trkpt>
      <trkpt lat="46.94606" lon="-1.0199">
        <ele>159</ele>
        <time>2022-03-21T10:12:40Z</time>
      </trkpt>
      <trkpt lat="46.94582" lon="-1.02017">
        <ele>158</ele>
        <time>2022-03-21T10:13:04Z</time>
      </trkpt>
      <trkpt lat="46.94556" lon="-1.02085">
        <ele>155</ele>
        <time>2022-03-21T10:13:47Z</time>
      </trkpt>
      <trkpt lat="46.9451" lon="-1.02217">
        <ele>150</ele>
        <time>2022-03-21T10:15:08Z</time>
      </trkpt>
      <trkpt lat="46.94492" lon="-1.02251">
        <ele>148</ele>
        <time>2022-03-21T10:15:32Z</time>
      </trkpt>
      <trkpt lat="46.94468" lon="-1.02286">
        <ele>145</ele>
        <time>2022-03-21T10:15:59Z</time>
      </trkpt>
      <trkpt lat="46.9446" lon="-1.02311">
        <ele>143</ele>
        <time>2022-03-21T10:16:14Z</time>
      </trkpt>
      <trkpt lat="46.9446" lon="-1.02362">
        <ele>142</ele>
        <time>2022-03-21T10:16:42Z</time>
      </trkpt>
      <trkpt lat="46.94467" lon="-1.02397">
        <ele>141</ele>
        <time>2022-03-21T10:17:02Z</time>
      </trkpt>
      <trkpt lat="46.94459" lon="-1.02531">
        <ele>137</ele>
        <time>2022-03-21T10:18:15Z</time>
      </trkpt>
      <trkpt lat="46.94467" lon="-1.02565">
        <ele>137</ele>
        <time>2022-03-21T10:18:35Z</time>
      </trkpt>
      <trkpt lat="46.94465" lon="-1.0259">
        <ele>137</ele>
        <time>2022-03-21T10:18:49Z</time>
      </trkpt>
      <trkpt lat="46.94462" lon="-1.02597">
        <ele>137</ele>
        <time>2022-03-21T10:18:53Z</time>
      </trkpt>
      <trkpt lat="46.94448" lon="-1.0263">
        <ele>138</ele>
        <time>2022-03-21T10:19:14Z</time>
      </trkpt>
      <trkpt lat="46.94401" lon="-1.02697">
        <ele>138</ele>
        <time>2022-03-21T10:20:07Z</time>
      </trkpt>
      <trkpt lat="46.94368" lon="-1.02727">
        <ele>139</ele>
        <time>2022-03-21T10:20:38Z</time>
      </trkpt>
      <trkpt lat="46.94314" lon="-1.02745">
        <ele>139</ele>
        <time>2022-03-21T10:21:22Z</time>
      </trkpt>
      <trkpt lat="46.94274" lon="-1.02741">
        <ele>140</ele>
        <time>2022-03-21T10:21:54Z</time>
      </trkpt>
      <trkpt lat="46.94227" lon="-1.0273">
        <ele>141</ele>
        <time>2022-03-21T10:22:32Z</time>
      </trkpt>
      <trkpt lat="46.94204" lon="-1.02738">
        <ele>143</ele>
        <time>2022-03-21T10:22:51Z</time>
      </trkpt>
      <trkpt lat="46.94192" lon="-1.02757">
        <ele>144</ele>
        <time>2022-03-21T10:23:06Z</time>
      </trkpt>
      <trkpt lat="46.94181" lon="-1.02802">
        <ele>147</ele>
        <time>2022-03-21T10:23:32Z</time>
      </trkpt>
      <trkpt lat="46.94155" lon="-1.02853">
        <ele>151</ele>
        <time>2022-03-21T10:24:06Z</time>
      </trkpt>
      <trkpt lat="46.94141" lon="-1.02911">
        <ele>153</ele>
        <time>2022-03-21T10:24:40Z</time>
      </trkpt>
      <trkpt lat="46.9413" lon="-1.02941">
        <ele>154</ele>
        <time>2022-03-21T10:24:59Z</time>
      </trkpt>
      <trkpt lat="46.9411" lon="-1.0296">
        <ele>155</ele>
        <time>2022-03-21T10:25:18Z</time>
      </trkpt>
      <trkpt lat="46.94066" lon="-1.03016">
        <ele>156</ele>
        <time>2022-03-21T10:26:04Z</time>
      </trkpt>
      <trkpt lat="46.94024" lon="-1.03086">
        <ele>159</ele>
        <time>2022-03-21T10:26:55Z</time>
      </trkpt>
      <trkpt lat="46.94037" lon="-1.03101">
        <ele>158</ele>
        <time>2022-03-21T10:27:09Z</time>
      </trkpt>
      <trkpt lat="46.94087" lon="-1.03206">
        <ele>157</ele>
        <time>2022-03-21T10:28:19Z</time>
      </trkpt>
      <trkpt lat="46.94126" lon="-1.03269">
        <ele>158</ele>
        <time>2022-03-21T10:29:05Z</time>
      </trkpt>
      <trkpt lat="46.94134" lon="-1.03272">
        <ele>158</ele>
        <time>2022-03-21T10:29:12Z</time>
      </trkpt>
      <trkpt lat="46.94153" lon="-1.03252">
        <ele>158</ele>
        <time>2022-03-21T10:29:30Z</time>
      </trkpt>
      <trkpt lat="46.94169" lon="-1.03256">
        <ele>158</ele>
        <time>2022-03-21T10:29:43Z</time>
      </trkpt>
      <trkpt lat="46.94189" lon="-1.03266">
        <ele>158</ele>
        <time>2022-03-21T10:30:00Z</time>
      </trkpt>
      <trkpt lat="46.94249" lon="-1.03267">
        <ele>159</ele>
        <time>2022-03-21T10:30:48Z</time>
      </trkpt>
      <trkpt lat="46.94271" lon="-1.0328">
        <ele>157</ele>
        <time>2022-03-21T10:31:07Z</time>
      </trkpt>
      <trkpt lat="46.94287" lon="-1.03301">
        <ele>155</ele>
        <time>2022-03-21T10:31:25Z</time>
      </trkpt>
      <trkpt lat="46.943" lon="-1.03344">
        <ele>153</ele>
        <time>2022-03-21T10:31:50Z</time>
      </trkpt>
      <trkpt lat="46.94317" lon="-1.03433">
        <ele>153</ele>
        <time>2022-03-21T10:32:41Z</time>
      </trkpt>
      <trkpt lat="46.94341" lon="-1.0346">
        <ele>151</ele>
        <time>2022-03-21T10:33:05Z</time>
      </trkpt>
      <trkpt lat="46.94351" lon="-1.03463">
        <ele>150</ele>
        <time>2022-03-21T10:33:13Z</time>
      </trkpt>
      <trkpt lat="46.94382" lon="-1.03493">
        <ele>148</ele>
        <time>2022-03-21T10:33:43Z</time>
      </trkpt>
      <trkpt lat="46.94422" lon="-1.03521">
        <ele>145</ele>
        <time>2022-03-21T10:34:19Z</time>
      </trkpt>
      <trkpt lat="46.94477" lon="-1.03548">
        <ele>142</ele>
        <time>2022-03-21T10:35:05Z</time>
      </trkpt>
      <trkpt lat="46.9451" lon="-1.03536">
        <ele>141</ele>
        <time>2022-03-21T10:35:32Z</time>
      </trkpt>
      <trkpt lat="46.94566" lon="-1.0349">
        <ele>138</ele>
        <time>2022-03-21T10:36:24Z</time>
      </trkpt>
      <trkpt lat="46.94591" lon="-1.03457">
        <ele>136</ele>
        <time>2022-03-21T10:36:51Z</time>
      </trkpt>
      <trkpt lat="46.9462" lon="-1.0344">
        <ele>135</ele>
        <time>2022-03-21T10:37:16Z</time>
      </trkpt>
      <trkpt lat="46.9465" lon="-1.03438">
        <ele>134</ele>
        <time>2022-03-21T10:37:40Z</time>
      </trkpt>
      <trkpt lat="46.94662" lon="-1.03441">
        <ele>134</ele>
        <time>2022-03-21T10:37:49Z</time>
      </trkpt>
      <trkpt lat="46.94678" lon="-1.03463">
        <ele>135</ele>
        <time>2022-03-21T10:38:07Z</time>
      </trkpt>
      <trkpt lat="46.94718" lon="-1.03528">
        <ele>136</ele>
        <time>2022-03-21T10:38:55Z</time>
      </trkpt>
      <trkpt lat="46.94728" lon="-1.03559">
        <ele>135</ele>
        <time>2022-03-21T10:39:13Z</time>
      </trkpt>
      <trkpt lat="46.94738" lon="-1.036">
        <ele>135</ele>
        <time>2022-03-21T10:39:37Z</time>
      </trkpt>
      <trkpt lat="46.94753" lon="-1.03613">
        <ele>135</ele>
        <time>2022-03-21T10:39:51Z</time>
      </trkpt>
      <trkpt lat="46.94765" lon="-1.03597">
        <ele>135</ele>
        <time>2022-03-21T10:40:04Z</time>
      </trkpt>
      <trkpt lat="46.94773" lon="-1.03576">
        <ele>135</ele>
        <time>2022-03-21T10:40:17Z</time>
      </trkpt>
      <trkpt lat="46.94784" lon="-1.03578">
        <ele>135</ele>
        <time>2022-03-21T10:40:26Z</time>
      </trkpt>
      <trkpt lat="46.94805" lon="-1.03617">
        <ele>135</ele>
        <time>2022-03-21T10:40:53Z</time>
      </trkpt>
      <trkpt lat="46.948" lon="-1.03647">
        <ele>135</ele>
        <time>2022-03-21T10:41:10Z</time>
      </trkpt>
      <trkpt lat="46.94809" lon="-1.03656">
        <ele>135</ele>
        <time>2022-03-21T10:41:19Z</time>
      </trkpt>
      <trkpt lat="46.94817" lon="-1.0362">
        <ele>135</ele>
        <time>2022-03-21T10:41:40Z</time>
      </trkpt>
      <trkpt lat="46.94872" lon="-1.0366">
        <ele>136</ele>
        <time>2022-03-21T10:42:29Z</time>
      </trkpt>
      <trkpt lat="46.94883" lon="-1.03655">
        <ele>136</ele>
        <time>2022-03-21T10:42:38Z</time>
      </trkpt>
      <trkpt lat="46.94887" lon="-1.03642">
        <ele>136</ele>
        <time>2022-03-21T10:42:46Z</time>
      </trkpt>
      <trkpt lat="46.94893" lon="-1.03595">
        <ele>135</ele>
        <time>2022-03-21T10:43:12Z</time>
      </trkpt>
      <trkpt lat="46.94899" lon="-1.03561">
        <ele>136</ele>
        <time>2022-03-21T10:43:31Z</time>
      </trkpt>
      <trkpt lat="46.94896" lon="-1.03544">
        <ele>136</ele>
        <time>2022-03-21T10:43:41Z</time>
      </trkpt>
      <trkpt lat="46.94841" lon="-1.03548">
        <ele>136</ele>
        <time>2022-03-21T10:44:25Z</time>
      </trkpt>
      <trkpt lat="46.94832" lon="-1.03539">
        <ele>137</ele>
        <time>2022-03-21T10:44:34Z</time>
      </trkpt>
      <trkpt lat="46.94833" lon="-1.03514">
        <ele>137</ele>
        <time>2022-03-21T10:44:47Z</time>
      </trkpt>
      <trkpt lat="46.94834" lon="-1.03501">
        <ele>137</ele>
        <time>2022-03-21T10:44:54Z</time>
      </trkpt>
      <trkpt lat="46.94881" lon="-1.03262">
        <ele>145</ele>
        <time>2022-03-21T10:47:10Z</time>
      </trkpt>
      <trkpt lat="46.94896" lon="-1.03212">
        <ele>145</ele>
        <time>2022-03-21T10:47:40Z</time>
      </trkpt>
      <trkpt lat="46.94993" lon="-1.02925">
        <ele>150</ele>
        <time>2022-03-21T10:50:35Z</time>
      </trkpt>
      <trkpt lat="46.95013" lon="-1.02863">
        <ele>153</ele>
        <time>2022-03-21T10:51:13Z</time>
      </trkpt>
      <trkpt lat="46.95033" lon="-1.02817">
        <ele>155</ele>
        <time>2022-03-21T10:51:43Z</time>
      </trkpt>
      <trkpt lat="46.95073" lon="-1.02776">
        <ele>158</ele>
        <time>2022-03-21T10:52:22Z</time>
      </trkpt>
      <trkpt lat="46.95105" lon="-1.02742">
        <ele>159</ele>
        <time>2022-03-21T10:52:53Z</time>
      </trkpt>
      <trkpt lat="46.95214" lon="-1.02597">
        <ele>162</ele>
        <time>2022-03-21T10:54:51Z</time>
      </trkpt>
      <trkpt lat="46.95231" lon="-1.02578">
        <ele>163</ele>
        <time>2022-03-21T10:55:08Z</time>
      </trkpt>
      <trkpt lat="46.95258" lon="-1.02555">
        <ele>164</ele>
        <time>2022-03-21T10:55:33Z</time>
      </trkpt>
      <trkpt lat="46.95277" lon="-1.02543">
        <ele>164</ele>
        <time>2022-03-21T10:55:50Z</time>
      </trkpt>
      <trkpt lat="46.95294" lon="-1.02524">
        <ele>165</ele>
        <time>2022-03-21T10:56:07Z</time>
      </trkpt>
      <trkpt lat="46.95309" lon="-1.02499">
        <ele>165</ele>
        <time>2022-03-21T10:56:25Z</time>
      </trkpt>
      <trkpt lat="46.95468" lon="-1.02303">
        <ele>174</ele>
        <time>2022-03-21T10:59:12Z</time>
      </trkpt>
      <trkpt lat="46.95604" lon="-1.02232">
        <ele>183</ele>
        <time>2022-03-21T11:01:07Z</time>
      </trkpt>
      <trkpt lat="46.95625" lon="-1.02216">
        <ele>183</ele>
        <time>2022-03-21T11:01:26Z</time>
      </trkpt>
      <trkpt lat="46.95658" lon="-1.02183">
        <ele>184</ele>
        <time>2022-03-21T11:01:58Z</time>
      </trkpt>
      <trkpt lat="46.9564" lon="-1.01864">
        <ele>185</ele>
        <time>2022-03-21T11:04:53Z</time>
      </trkpt>
      <trkpt lat="46.95632" lon="-1.0181">
        <ele>184</ele>
        <time>2022-03-21T11:05:23Z</time>
      </trkpt>
      <trkpt lat="46.95626" lon="-1.01773">
        <ele>184</ele>
        <time>2022-03-21T11:05:44Z</time>
      </trkpt>
      <trkpt lat="46.95592" lon="-1.01662">
        <ele>186</ele>
        <time>2022-03-21T11:06:51Z</time>
      </trkpt>
      <trkpt lat="46.95541" lon="-1.01522">
        <ele>190</ele>
        <time>2022-03-21T11:08:17Z</time>
      </trkpt>
      <trkpt lat="46.9552" lon="-1.01495">
        <ele>190</ele>
        <time>2022-03-21T11:08:40Z</time>
      </trkpt>
      <trkpt lat="46.95502" lon="-1.01482">
        <ele>190</ele>
        <time>2022-03-21T11:08:56Z</time>
      </trkpt>
      <trkpt lat="46.95411" lon="-1.01429">
        <ele>194</ele>
        <time>2022-03-21T11:10:14Z</time>
      </trkpt>
      <trkpt lat="46.95368" lon="-1.01407">
        <ele>195</ele>
        <time>2022-03-21T11:10:51Z</time>
      </trkpt>
      <trkpt lat="46.9535" lon="-1.0139">
        <ele>196</ele>
        <time>2022-03-21T11:11:08Z</time>
      </trkpt>
      <trkpt lat="46.95343" lon="-1.01378">
        <ele>196</ele>
        <time>2022-03-21T11:11:16Z</time>
      </trkpt>
      <trkpt lat="46.95337" lon="-1.01364">
        <ele>197</ele>
        <time>2022-03-21T11:11:25Z</time>
      </trkpt>
      <trkpt lat="46.95328" lon="-1.01329">
        <ele>198</ele>
        <time>2022-03-21T11:11:46Z</time>
      </trkpt>
      <trkpt lat="46.95289" lon="-1.01149">
        <ele>197</ele>
        <time>2022-03-21T11:13:29Z</time>
      </trkpt>
      <trkpt lat="46.95245" lon="-1.00982">
        <ele>198</ele>
        <time>2022-03-21T11:15:07Z</time>
      </trkpt>
      <trkpt lat="46.9523" lon="-1.00949">
        <ele>198</ele>
        <time>2022-03-21T11:15:29Z</time>
      </trkpt>
      <trkpt lat="46.95214" lon="-1.00933">
        <ele>197</ele>
        <time>2022-03-21T11:15:44Z</time>
      </trkpt>
      <trkpt lat="46.95207" lon="-1.00941">
        <ele>197</ele>
        <time>2022-03-21T11:15:51Z</time>
      </trkpt>
      <trkpt lat="46.95197" lon="-1.00943">
        <ele>197</ele>
        <time>2022-03-21T11:15:59Z</time>
      </trkpt>
      <trkpt lat="46.95174" lon="-1.00922">
        <ele>197</ele>
        <time>2022-03-21T11:16:21Z</time>
      </trkpt>
      <trkpt lat="46.9517" lon="-1.00913">
        <ele>197</ele>
        <time>2022-03-21T11:16:27Z</time>
      </trkpt>
      <trkpt lat="46.95164" lon="-1.0089">
        <ele>197</ele>
        <time>2022-03-21T11:16:40Z</time>
      </trkpt>
      <trkpt lat="46.95166" lon="-1.00879">
        <ele>197</ele>
        <time>2022-03-21T11:16:47Z</time>
      </trkpt>
      <trkpt lat="46.95154" lon="-1.00867">
        <ele>197</ele>
        <time>2022-03-21T11:16:58Z</time>
      </trkpt>
      <trkpt lat="46.95145" lon="-1.00853">
        <ele>197</ele>
        <time>2022-03-21T11:17:09Z</time>
      </trkpt>
    </trkseg>
  </trk>
</gpx>